sensor_id;sensor_type;location;lat;lon;timestamp;temperature;humidity
6756;DHT22;3415;51.148;7.014;2022-11-25T00:02:22;7.80;1.00
6756;DHT22;3415;51.148;7.014;2022-11-25T00:04:49;7.70;1.00
6756;DHT22;3415;51.148;7.014;2022-11-25T00:07:15;7.80;1.00
6756;DHT22;3415;51.148;7.014;2022-11-25T00:09:42;7.80;1.00
6756;DHT22;3415;51.148;7.014;2022-11-25T00:12:11;7.80;1.00
6756;DHT22;3415;51.148;7.014;2022-11-25T00:14:38;7.80;1.00
6756;DHT22;3415;51.148;7.014;2022-11-25T00:17:05;7.80;1.00
6756;DHT22;3415;51.148;7.014;2022-11-25T00:19:32;7.80;1.00
6756;DHT22;3415;51.148;7.014;2022-11-25T00:21:59;7.80;1.00
6756;DHT22;3415;51.148;7.014;2022-11-25T00:24:26;7.80;1.00
6756;DHT22;3415;51.148;7.014;2022-11-25T00:26:53;7.80;1.00
6756;DHT22;3415;51.148;7.014;2022-11-25T00:29:21;7.80;1.00
6756;DHT22;3415;51.148;7.014;2022-11-25T00:31:48;7.80;1.00
6756;DHT22;3415;51.148;7.014;2022-11-25T00:34:15;7.70;1.00
6756;DHT22;3415;51.148;7.014;2022-11-25T00:36:42;7.80;1.00
6756;DHT22;3415;51.148;7.014;2022-11-25T00:39:11;7.70;1.00
6756;DHT22;3415;51.148;7.014;2022-11-25T00:41:38;7.60;1.00
6756;DHT22;3415;51.148;7.014;2022-11-25T00:44:24;7.70;1.00
6756;DHT22;3415;51.148;7.014;2022-11-25T00:47:06;7.60;1.00
6756;DHT22;3415;51.148;7.014;2022-11-25T00:49:35;7.60;1.00
6756;DHT22;3415;51.148;7.014;2022-11-25T00:52:03;7.60;1.00
6756;DHT22;3415;51.148;7.014;2022-11-25T00:54:30;7.60;1.00
6756;DHT22;3415;51.148;7.014;2022-11-25T00:56:58;7.60;1.00
6756;DHT22;3415;51.148;7.014;2022-11-25T00:59:26;7.60;1.00
6756;DHT22;3415;51.148;7.014;2022-11-25T01:01:54;7.70;1.00
6756;DHT22;3415;51.148;7.014;2022-11-25T01:04:21;7.60;1.00
6756;DHT22;3415;51.148;7.014;2022-11-25T01:06:48;7.60;1.00
6756;DHT22;3415;51.148;7.014;2022-11-25T01:09:15;7.50;1.00
6756;DHT22;3415;51.148;7.014;2022-11-25T01:11:43;7.50;1.00
6756;DHT22;3415;51.148;7.014;2022-11-25T01:14:10;7.50;1.00
6756;DHT22;3415;51.148;7.014;2022-11-25T01:16:38;7.50;1.00
6756;DHT22;3415;51.148;7.014;2022-11-25T01:19:05;7.60;1.00
6756;DHT22;3415;51.148;7.014;2022-11-25T01:21:34;7.70;1.00
6756;DHT22;3415;51.148;7.014;2022-11-25T01:24:02;7.70;1.00
6756;DHT22;3415;51.148;7.014;2022-11-25T01:26:33;7.60;1.00
6756;DHT22;3415;51.148;7.014;2022-11-25T01:29:02;7.60;1.00
6756;DHT22;3415;51.148;7.014;2022-11-25T01:31:32;7.60;1.00
6756;DHT22;3415;51.148;7.014;2022-11-25T01:34:04;7.70;1.00
6756;DHT22;3415;51.148;7.014;2022-11-25T01:36:32;7.60;1.00
6756;DHT22;3415;51.148;7.014;2022-11-25T01:38:59;7.60;1.00
6756;DHT22;3415;51.148;7.014;2022-11-25T01:41:29;7.70;1.00
6756;DHT22;3415;51.148;7.014;2022-11-25T01:44:05;7.70;1.00
6756;DHT22;3415;51.148;7.014;2022-11-25T01:46:46;7.80;1.00
6756;DHT22;3415;51.148;7.014;2022-11-25T01:49:19;7.80;1.00
6756;DHT22;3415;51.148;7.014;2022-11-25T01:51:54;7.80;1.00
6756;DHT22;3415;51.148;7.014;2022-11-25T01:54:25;7.80;1.00
6756;DHT22;3415;51.148;7.014;2022-11-25T01:56:57;7.90;1.00
6756;DHT22;3415;51.148;7.014;2022-11-25T01:59:29;7.90;1.00
6756;DHT22;3415;51.148;7.014;2022-11-25T02:01:59;8.00;1.00
6756;DHT22;3415;51.148;7.014;2022-11-25T02:04:31;8.00;1.00
6756;DHT22;3415;51.148;7.014;2022-11-25T02:07:04;8.00;1.00
6756;DHT22;3415;51.148;7.014;2022-11-25T02:09:36;8.10;1.00
6756;DHT22;3415;51.148;7.014;2022-11-25T02:12:05;8.10;1.00
6756;DHT22;3415;51.148;7.014;2022-11-25T02:14:32;8.10;1.00
6756;DHT22;3415;51.148;7.014;2022-11-25T02:17:00;8.20;1.00
6756;DHT22;3415;51.148;7.014;2022-11-25T02:19:40;8.30;1.00
6756;DHT22;3415;51.148;7.014;2022-11-25T02:22:24;8.30;1.00
6756;DHT22;3415;51.148;7.014;2022-11-25T02:24:57;8.30;1.00
6756;DHT22;3415;51.148;7.014;2022-11-25T02:27:29;8.30;1.00
6756;DHT22;3415;51.148;7.014;2022-11-25T02:29:56;8.40;1.00
6756;DHT22;3415;51.148;7.014;2022-11-25T02:32:23;8.40;1.00
6756;DHT22;3415;51.148;7.014;2022-11-25T02:34:50;8.50;1.00
6756;DHT22;3415;51.148;7.014;2022-11-25T02:37:18;8.50;1.00
6756;DHT22;3415;51.148;7.014;2022-11-25T02:39:49;8.60;1.00
6756;DHT22;3415;51.148;7.014;2022-11-25T02:42:18;8.60;1.00
6756;DHT22;3415;51.148;7.014;2022-11-25T02:44:48;8.60;1.00
6756;DHT22;3415;51.148;7.014;2022-11-25T02:47:15;8.60;1.00
6756;DHT22;3415;51.148;7.014;2022-11-25T02:49:42;8.60;1.00
6756;DHT22;3415;51.148;7.014;2022-11-25T02:52:09;8.60;1.00
6756;DHT22;3415;51.148;7.014;2022-11-25T02:54:38;8.70;1.00
6756;DHT22;3415;51.148;7.014;2022-11-25T02:57:05;8.70;1.00
6756;DHT22;3415;51.148;7.014;2022-11-25T02:59:32;8.60;1.00
6756;DHT22;3415;51.148;7.014;2022-11-25T03:02:00;8.60;1.00
6756;DHT22;3415;51.148;7.014;2022-11-25T03:04:27;8.60;1.00
6756;DHT22;3415;51.148;7.014;2022-11-25T03:06:54;8.50;1.00
6756;DHT22;3415;51.148;7.014;2022-11-25T03:09:21;8.50;1.00
6756;DHT22;3415;51.148;7.014;2022-11-25T03:11:48;6.70;1.00
6756;DHT22;3415;51.148;7.014;2022-11-25T03:14:32;8.50;1.00
6756;DHT22;3415;51.148;7.014;2022-11-25T03:17:01;8.50;1.00
6756;DHT22;3415;51.148;7.014;2022-11-25T03:19:28;8.50;1.00
6756;DHT22;3415;51.148;7.014;2022-11-25T03:21:55;8.50;1.00
6756;DHT22;3415;51.148;7.014;2022-11-25T03:24:22;8.70;1.00
6756;DHT22;3415;51.148;7.014;2022-11-25T03:26:49;8.60;1.00
6756;DHT22;3415;51.148;7.014;2022-11-25T03:29:15;8.60;1.00
6756;DHT22;3415;51.148;7.014;2022-11-25T03:31:42;8.60;1.00
6756;DHT22;3415;51.148;7.014;2022-11-25T03:34:12;8.60;1.00
6756;DHT22;3415;51.148;7.014;2022-11-25T03:36:39;8.60;1.00
6756;DHT22;3415;51.148;7.014;2022-11-25T03:39:06;8.70;1.00
6756;DHT22;3415;51.148;7.014;2022-11-25T03:41:33;8.70;1.00
6756;DHT22;3415;51.148;7.014;2022-11-25T03:43:59;8.80;1.00
6756;DHT22;3415;51.148;7.014;2022-11-25T03:46:27;8.80;1.00
6756;DHT22;3415;51.148;7.014;2022-11-25T03:48:54;8.80;1.00
6756;DHT22;3415;51.148;7.014;2022-11-25T03:51:22;8.90;1.00
6756;DHT22;3415;51.148;7.014;2022-11-25T03:53:49;8.80;1.00
6756;DHT22;3415;51.148;7.014;2022-11-25T03:56:16;9.10;1.00
6756;DHT22;3415;51.148;7.014;2022-11-25T03:58:43;9.10;1.00
6756;DHT22;3415;51.148;7.014;2022-11-25T04:01:10;9.10;1.00
6756;DHT22;3415;51.148;7.014;2022-11-25T04:03:37;9.20;1.00
6756;DHT22;3415;51.148;7.014;2022-11-25T04:06:04;9.30;1.00
6756;DHT22;3415;51.148;7.014;2022-11-25T04:08:32;9.30;1.00
6756;DHT22;3415;51.148;7.014;2022-11-25T04:10:59;9.30;1.00
6756;DHT22;3415;51.148;7.014;2022-11-25T04:13:27;9.30;1.00
6756;DHT22;3415;51.148;7.014;2022-11-25T04:15:53;9.40;1.00
6756;DHT22;3415;51.148;7.014;2022-11-25T04:18:20;9.30;1.00
6756;DHT22;3415;51.148;7.014;2022-11-25T04:20:47;9.30;1.00
6756;DHT22;3415;51.148;7.014;2022-11-25T04:25:43;9.20;1.00
6756;DHT22;3415;51.148;7.014;2022-11-25T04:28:10;9.20;1.00
6756;DHT22;3415;51.148;7.014;2022-11-25T04:30:37;9.10;1.00
6756;DHT22;3415;51.148;7.014;2022-11-25T04:33:05;9.10;1.00
6756;DHT22;3415;51.148;7.014;2022-11-25T04:35:32;9.20;1.00
6756;DHT22;3415;51.148;7.014;2022-11-25T04:37:59;9.20;1.00
6756;DHT22;3415;51.148;7.014;2022-11-25T04:40:26;9.20;1.00
6756;DHT22;3415;51.148;7.014;2022-11-25T04:42:54;9.20;1.00
6756;DHT22;3415;51.148;7.014;2022-11-25T04:45:21;9.20;1.00
6756;DHT22;3415;51.148;7.014;2022-11-25T04:47:48;9.20;1.00
6756;DHT22;3415;51.148;7.014;2022-11-25T04:50:17;9.30;1.00
6756;DHT22;3415;51.148;7.014;2022-11-25T04:52:46;9.30;1.00
6756;DHT22;3415;51.148;7.014;2022-11-25T04:55:13;9.20;1.00
6756;DHT22;3415;51.148;7.014;2022-11-25T04:57:40;9.10;1.00
6756;DHT22;3415;51.148;7.014;2022-11-25T05:00:11;8.90;1.00
6756;DHT22;3415;51.148;7.014;2022-11-25T05:02:37;8.90;1.00
6756;DHT22;3415;51.148;7.014;2022-11-25T05:05:05;8.80;1.00
6756;DHT22;3415;51.148;7.014;2022-11-25T05:07:33;8.80;1.00
6756;DHT22;3415;51.148;7.014;2022-11-25T05:10:00;8.70;1.00
6756;DHT22;3415;51.148;7.014;2022-11-25T05:12:28;8.60;1.00
6756;DHT22;3415;51.148;7.014;2022-11-25T05:14:55;8.60;1.00
6756;DHT22;3415;51.148;7.014;2022-11-25T05:17:25;8.60;1.00
6756;DHT22;3415;51.148;7.014;2022-11-25T05:19:53;8.50;1.00
6756;DHT22;3415;51.148;7.014;2022-11-25T05:22:22;8.50;1.00
6756;DHT22;3415;51.148;7.014;2022-11-25T05:24:50;8.50;1.00
6756;DHT22;3415;51.148;7.014;2022-11-25T05:27:18;8.50;1.00
6756;DHT22;3415;51.148;7.014;2022-11-25T05:29:45;8.50;1.00
6756;DHT22;3415;51.148;7.014;2022-11-25T05:32:12;8.50;1.00
6756;DHT22;3415;51.148;7.014;2022-11-25T05:34:41;8.50;1.00
6756;DHT22;3415;51.148;7.014;2022-11-25T05:37:10;8.50;1.00
6756;DHT22;3415;51.148;7.014;2022-11-25T05:39:39;8.40;1.00
6756;DHT22;3415;51.148;7.014;2022-11-25T05:42:06;8.30;1.00
6756;DHT22;3415;51.148;7.014;2022-11-25T05:44:33;8.30;1.00
6756;DHT22;3415;51.148;7.014;2022-11-25T05:47:00;8.30;1.00
6756;DHT22;3415;51.148;7.014;2022-11-25T05:49:27;8.20;1.00
6756;DHT22;3415;51.148;7.014;2022-11-25T05:51:55;8.20;1.00
6756;DHT22;3415;51.148;7.014;2022-11-25T05:54:23;8.20;1.00
6756;DHT22;3415;51.148;7.014;2022-11-25T05:56:50;8.20;1.00
6756;DHT22;3415;51.148;7.014;2022-11-25T05:59:17;8.20;1.00
6756;DHT22;3415;51.148;7.014;2022-11-25T06:01:44;8.20;1.00
6756;DHT22;3415;51.148;7.014;2022-11-25T06:04:11;8.30;1.00
6756;DHT22;3415;51.148;7.014;2022-11-25T06:06:38;8.10;1.00
6756;DHT22;3415;51.148;7.014;2022-11-25T06:09:06;8.10;1.00
6756;DHT22;3415;51.148;7.014;2022-11-25T06:11:33;8.10;1.00
6756;DHT22;3415;51.148;7.014;2022-11-25T06:14:00;8.10;1.00
6756;DHT22;3415;51.148;7.014;2022-11-25T06:16:27;8.10;1.00
6756;DHT22;3415;51.148;7.014;2022-11-25T06:18:54;8.10;1.00
6756;DHT22;3415;51.148;7.014;2022-11-25T06:21:22;8.10;1.00
6756;DHT22;3415;51.148;7.014;2022-11-25T06:23:50;8.00;1.00
6756;DHT22;3415;51.148;7.014;2022-11-25T06:26:20;8.00;1.00
6756;DHT22;3415;51.148;7.014;2022-11-25T06:28:51;8.20;1.00
6756;DHT22;3415;51.148;7.014;2022-11-25T06:31:22;8.00;1.00
6756;DHT22;3415;51.148;7.014;2022-11-25T06:33:52;7.90;1.00
6756;DHT22;3415;51.148;7.014;2022-11-25T06:36:20;7.90;1.00
6756;DHT22;3415;51.148;7.014;2022-11-25T06:38:50;8.00;1.00
6756;DHT22;3415;51.148;7.014;2022-11-25T06:41:20;8.00;1.00
6756;DHT22;3415;51.148;7.014;2022-11-25T06:43:47;7.90;1.00
6756;DHT22;3415;51.148;7.014;2022-11-25T06:46:16;7.90;1.00
6756;DHT22;3415;51.148;7.014;2022-11-25T06:48:44;7.90;1.00
6756;DHT22;3415;51.148;7.014;2022-11-25T06:51:13;7.90;1.00
6756;DHT22;3415;51.148;7.014;2022-11-25T06:53:40;8.00;1.00
6756;DHT22;3415;51.148;7.014;2022-11-25T06:56:10;8.00;1.30
6756;DHT22;3415;51.148;7.014;2022-11-25T06:58:39;7.90;1.00
6756;DHT22;3415;51.148;7.014;2022-11-25T07:01:10;8.00;3.10
6756;DHT22;3415;51.148;7.014;2022-11-25T07:03:39;7.90;3.50
6756;DHT22;3415;51.148;7.014;2022-11-25T07:06:06;7.90;3.70
6756;DHT22;3415;51.148;7.014;2022-11-25T07:08:34;7.90;5.70
6756;DHT22;3415;51.148;7.014;2022-11-25T07:11:02;7.90;6.00
6756;DHT22;3415;51.148;7.014;2022-11-25T07:13:30;7.90;9.30
6756;DHT22;3415;51.148;7.014;2022-11-25T07:16:01;7.90;11.20
6756;DHT22;3415;51.148;7.014;2022-11-25T07:18:30;7.90;13.00
6756;DHT22;3415;51.148;7.014;2022-11-25T07:21:02;7.90;16.20
6756;DHT22;3415;51.148;7.014;2022-11-25T07:23:31;8.00;20.90
6756;DHT22;3415;51.148;7.014;2022-11-25T07:26:02;8.00;22.90
6756;DHT22;3415;51.148;7.014;2022-11-25T07:28:29;8.00;19.80
6756;DHT22;3415;51.148;7.014;2022-11-25T07:31:05;8.00;21.30
6756;DHT22;3415;51.148;7.014;2022-11-25T07:33:33;8.00;3.80
6756;DHT22;3415;51.148;7.014;2022-11-25T07:36:02;8.00;5.80
6756;DHT22;3415;51.148;7.014;2022-11-25T07:38:29;8.00;1.00
6756;DHT22;3415;51.148;7.014;2022-11-25T07:41:02;8.00;1.00
6756;DHT22;3415;51.148;7.014;2022-11-25T07:43:31;8.00;1.00
6756;DHT22;3415;51.148;7.014;2022-11-25T07:46:09;8.00;1.00
6756;DHT22;3415;51.148;7.014;2022-11-25T07:48:37;8.00;1.00
6756;DHT22;3415;51.148;7.014;2022-11-25T07:51:04;8.00;1.00
6756;DHT22;3415;51.148;7.014;2022-11-25T07:53:32;7.90;1.00
6756;DHT22;3415;51.148;7.014;2022-11-25T07:56:00;7.90;1.00
6756;DHT22;3415;51.148;7.014;2022-11-25T07:58:27;7.90;1.00
6756;DHT22;3415;51.148;7.014;2022-11-25T08:00:54;7.90;1.00
6756;DHT22;3415;51.148;7.014;2022-11-25T08:03:23;8.00;1.00
6756;DHT22;3415;51.148;7.014;2022-11-25T08:05:50;8.00;1.00
6756;DHT22;3415;51.148;7.014;2022-11-25T08:08:17;8.00;1.00
6756;DHT22;3415;51.148;7.014;2022-11-25T08:10:44;8.00;1.00
6756;DHT22;3415;51.148;7.014;2022-11-25T08:13:11;8.10;1.00
6756;DHT22;3415;51.148;7.014;2022-11-25T08:15:38;8.10;1.00
6756;DHT22;3415;51.148;7.014;2022-11-25T08:18:05;8.20;1.00
6756;DHT22;3415;51.148;7.014;2022-11-25T08:20:33;8.20;1.00
6756;DHT22;3415;51.148;7.014;2022-11-25T08:23:01;8.20;1.00
6756;DHT22;3415;51.148;7.014;2022-11-25T08:25:28;8.30;1.00
6756;DHT22;3415;51.148;7.014;2022-11-25T08:27:58;8.50;1.00
6756;DHT22;3415;51.148;7.014;2022-11-25T08:30:26;8.40;1.00
6756;DHT22;3415;51.148;7.014;2022-11-25T08:32:53;8.40;1.00
6756;DHT22;3415;51.148;7.014;2022-11-25T08:35:20;8.60;1.00
6756;DHT22;3415;51.148;7.014;2022-11-25T08:37:48;8.60;1.00
6756;DHT22;3415;51.148;7.014;2022-11-25T08:40:15;8.60;1.00
6756;DHT22;3415;51.148;7.014;2022-11-25T08:42:42;8.80;1.00
6756;DHT22;3415;51.148;7.014;2022-11-25T08:45:10;8.90;1.00
6756;DHT22;3415;51.148;7.014;2022-11-25T08:47:37;8.80;1.00
6756;DHT22;3415;51.148;7.014;2022-11-25T08:50:06;8.80;1.00
6756;DHT22;3415;51.148;7.014;2022-11-25T08:52:34;8.80;1.00
6756;DHT22;3415;51.148;7.014;2022-11-25T08:55:03;8.80;1.00
6756;DHT22;3415;51.148;7.014;2022-11-25T08:57:30;8.80;1.00
6756;DHT22;3415;51.148;7.014;2022-11-25T08:59:57;8.80;1.00
6756;DHT22;3415;51.148;7.014;2022-11-25T09:02:24;8.90;1.00
6756;DHT22;3415;51.148;7.014;2022-11-25T09:04:51;8.90;1.00
6756;DHT22;3415;51.148;7.014;2022-11-25T09:07:18;9.20;1.00
6756;DHT22;3415;51.148;7.014;2022-11-25T09:09:45;9.10;1.00
6756;DHT22;3415;51.148;7.014;2022-11-25T09:12:14;9.30;1.00
6756;DHT22;3415;51.148;7.014;2022-11-25T09:14:41;9.60;1.00
6756;DHT22;3415;51.148;7.014;2022-11-25T09:17:09;11.50;1.00
6756;DHT22;3415;51.148;7.014;2022-11-25T09:19:36;12.90;1.00
6756;DHT22;3415;51.148;7.014;2022-11-25T09:22:03;13.00;1.00
6756;DHT22;3415;51.148;7.014;2022-11-25T09:24:31;14.60;1.00
6756;DHT22;3415;51.148;7.014;2022-11-25T09:26:57;14.00;1.00
6756;DHT22;3415;51.148;7.014;2022-11-25T09:29:26;13.50;1.00
6756;DHT22;3415;51.148;7.014;2022-11-25T09:31:54;12.50;1.00
6756;DHT22;3415;51.148;7.014;2022-11-25T09:34:21;11.90;1.00
6756;DHT22;3415;51.148;7.014;2022-11-25T09:36:49;11.50;1.00
6756;DHT22;3415;51.148;7.014;2022-11-25T09:39:16;11.00;1.00
6756;DHT22;3415;51.148;7.014;2022-11-25T09:41:56;11.00;1.00
6756;DHT22;3415;51.148;7.014;2022-11-25T09:44:56;10.90;1.00
6756;DHT22;3415;51.148;7.014;2022-11-25T09:47:51;10.80;1.00
6756;DHT22;3415;51.148;7.014;2022-11-25T09:50:29;10.50;1.00
6756;DHT22;3415;51.148;7.014;2022-11-25T09:53:05;10.50;1.00
6756;DHT22;3415;51.148;7.014;2022-11-25T09:55:41;10.40;1.00
6756;DHT22;3415;51.148;7.014;2022-11-25T09:58:17;10.50;1.00
6756;DHT22;3415;51.148;7.014;2022-11-25T10:00:50;10.50;1.00
6756;DHT22;3415;51.148;7.014;2022-11-25T10:03:23;11.30;1.00
6756;DHT22;3415;51.148;7.014;2022-11-25T10:06:02;11.40;1.00
6756;DHT22;3415;51.148;7.014;2022-11-25T10:08:34;11.70;1.00
6756;DHT22;3415;51.148;7.014;2022-11-25T10:11:14;11.70;1.00
6756;DHT22;3415;51.148;7.014;2022-11-25T10:13:52;11.40;1.00
6756;DHT22;3415;51.148;7.014;2022-11-25T10:16:33;11.30;1.00
6756;DHT22;3415;51.148;7.014;2022-11-25T10:19:11;11.70;1.00
6756;DHT22;3415;51.148;7.014;2022-11-25T10:21:43;11.70;1.00
6756;DHT22;3415;51.148;7.014;2022-11-25T10:24:12;11.80;1.00
6756;DHT22;3415;51.148;7.014;2022-11-25T10:26:44;11.70;1.00
6756;DHT22;3415;51.148;7.014;2022-11-25T10:29:30;11.50;1.00
6756;DHT22;3415;51.148;7.014;2022-11-25T10:32:10;11.30;1.00
6756;DHT22;3415;51.148;7.014;2022-11-25T10:34:48;11.10;1.00
6756;DHT22;3415;51.148;7.014;2022-11-25T10:37:24;11.20;1.00
6756;DHT22;3415;51.148;7.014;2022-11-25T10:39:52;11.50;1.00
6756;DHT22;3415;51.148;7.014;2022-11-25T10:42:21;11.50;1.00
6756;DHT22;3415;51.148;7.014;2022-11-25T10:44:49;11.60;1.00
6756;DHT22;3415;51.148;7.014;2022-11-25T10:47:33;11.90;1.00
6756;DHT22;3415;51.148;7.014;2022-11-25T10:50:15;11.70;1.00
6756;DHT22;3415;51.148;7.014;2022-11-25T10:52:49;11.50;1.00
6756;DHT22;3415;51.148;7.014;2022-11-25T10:55:21;11.30;1.00
6756;DHT22;3415;51.148;7.014;2022-11-25T10:57:50;11.10;1.00
6756;DHT22;3415;51.148;7.014;2022-11-25T11:00:26;10.90;1.00
6756;DHT22;3415;51.148;7.014;2022-11-25T11:03:10;10.80;1.00
6756;DHT22;3415;51.148;7.014;2022-11-25T11:05:44;10.80;1.00
6756;DHT22;3415;51.148;7.014;2022-11-25T11:08:18;10.80;1.00
6756;DHT22;3415;51.148;7.014;2022-11-25T11:11:07;10.90;1.00
6756;DHT22;3415;51.148;7.014;2022-11-25T11:13:36;10.90;1.00
6756;DHT22;3415;51.148;7.014;2022-11-25T11:16:14;10.90;1.00
6756;DHT22;3415;51.148;7.014;2022-11-25T11:18:49;11.00;1.00
6756;DHT22;3415;51.148;7.014;2022-11-25T11:21:22;10.90;1.00
6756;DHT22;3415;51.148;7.014;2022-11-25T11:23:53;11.10;1.00
6756;DHT22;3415;51.148;7.014;2022-11-25T11:26:23;11.20;1.00
6756;DHT22;3415;51.148;7.014;2022-11-25T11:28:59;11.50;1.00
6756;DHT22;3415;51.148;7.014;2022-11-25T11:31:33;12.20;1.00
6756;DHT22;3415;51.148;7.014;2022-11-25T11:34:19;12.10;1.00
6756;DHT22;3415;51.148;7.014;2022-11-25T11:37:02;12.30;1.00
6756;DHT22;3415;51.148;7.014;2022-11-25T11:39:57;12.10;1.00
6756;DHT22;3415;51.148;7.014;2022-11-25T11:42:51;12.10;1.00
6756;DHT22;3415;51.148;7.014;2022-11-25T11:45:36;12.70;1.00
6756;DHT22;3415;51.148;7.014;2022-11-25T11:48:24;12.50;1.00
6756;DHT22;3415;51.148;7.014;2022-11-25T11:51:01;12.50;1.00
6756;DHT22;3415;51.148;7.014;2022-11-25T11:53:41;12.40;1.00
6756;DHT22;3415;51.148;7.014;2022-11-25T11:56:15;12.40;1.00
6756;DHT22;3415;51.148;7.014;2022-11-25T11:58:54;12.40;1.00
6756;DHT22;3415;51.148;7.014;2022-11-25T12:01:38;12.30;1.00
6756;DHT22;3415;51.148;7.014;2022-11-25T12:04:15;12.00;1.00
6756;DHT22;3415;51.148;7.014;2022-11-25T12:06:59;12.00;1.00
6756;DHT22;3415;51.148;7.014;2022-11-25T12:09:32;12.00;1.00
6756;DHT22;3415;51.148;7.014;2022-11-25T12:12:05;11.80;1.00
6756;DHT22;3415;51.148;7.014;2022-11-25T12:14:40;11.70;1.00
6756;DHT22;3415;51.148;7.014;2022-11-25T12:17:14;11.60;1.00
6756;DHT22;3415;51.148;7.014;2022-11-25T12:19:49;11.70;1.00
6756;DHT22;3415;51.148;7.014;2022-11-25T12:22:24;11.60;1.00
6756;DHT22;3415;51.148;7.014;2022-11-25T12:25:00;11.70;1.00
6756;DHT22;3415;51.148;7.014;2022-11-25T12:27:35;11.50;1.00
6756;DHT22;3415;51.148;7.014;2022-11-25T12:30:05;11.50;1.00
6756;DHT22;3415;51.148;7.014;2022-11-25T12:32:52;11.90;1.00
6756;DHT22;3415;51.148;7.014;2022-11-25T12:35:35;11.60;1.00
6756;DHT22;3415;51.148;7.014;2022-11-25T12:38:17;11.50;1.00
6756;DHT22;3415;51.148;7.014;2022-11-25T12:40:54;11.50;1.00
6756;DHT22;3415;51.148;7.014;2022-11-25T12:43:33;11.40;1.00
6756;DHT22;3415;51.148;7.014;2022-11-25T12:46:14;11.40;1.00
6756;DHT22;3415;51.148;7.014;2022-11-25T12:48:48;11.50;1.00
6756;DHT22;3415;51.148;7.014;2022-11-25T12:51:41;11.60;1.00
6756;DHT22;3415;51.148;7.014;2022-11-25T12:54:28;11.50;1.00
6756;DHT22;3415;51.148;7.014;2022-11-25T12:57:25;11.60;1.00
6756;DHT22;3415;51.148;7.014;2022-11-25T13:00:11;11.50;1.00
6756;DHT22;3415;51.148;7.014;2022-11-25T13:03:05;11.50;1.00
6756;DHT22;3415;51.148;7.014;2022-11-25T13:06:06;11.30;1.00
6756;DHT22;3415;51.148;7.014;2022-11-25T13:08:54;11.50;1.00
6756;DHT22;3415;51.148;7.014;2022-11-25T13:11:58;11.50;1.00
6756;DHT22;3415;51.148;7.014;2022-11-25T13:14:52;11.60;1.00
6756;DHT22;3415;51.148;7.014;2022-11-25T13:17:27;11.60;1.00
6756;DHT22;3415;51.148;7.014;2022-11-25T13:23:02;11.50;1.00
6756;DHT22;3415;51.148;7.014;2022-11-25T13:25:34;11.40;1.00
6756;DHT22;3415;51.148;7.014;2022-11-25T13:28:28;11.40;1.00
6756;DHT22;3415;51.148;7.014;2022-11-25T13:31:17;11.40;1.00
6756;DHT22;3415;51.148;7.014;2022-11-25T13:34:06;11.20;1.00
6756;DHT22;3415;51.148;7.014;2022-11-25T13:36:44;11.30;1.00
6756;DHT22;3415;51.148;7.014;2022-11-25T13:39:14;11.20;1.00
6756;DHT22;3415;51.148;7.014;2022-11-25T13:41:56;11.30;1.00
6756;DHT22;3415;51.148;7.014;2022-11-25T13:44:28;11.30;1.00
6756;DHT22;3415;51.148;7.014;2022-11-25T13:49:51;9.40;1.00
6756;DHT22;3415;51.148;7.014;2022-11-25T13:52:39;11.40;1.00
6756;DHT22;3415;51.148;7.014;2022-11-25T13:55:20;11.50;1.00
6756;DHT22;3415;51.148;7.014;2022-11-25T13:58:15;11.60;1.00
6756;DHT22;3415;51.148;7.014;2022-11-25T14:01:10;11.60;1.00
6756;DHT22;3415;51.148;7.014;2022-11-25T14:03:51;11.60;1.00
6756;DHT22;3415;51.148;7.014;2022-11-25T14:06:36;11.70;1.00
6756;DHT22;3415;51.148;7.014;2022-11-25T14:09:41;11.60;1.00
6756;DHT22;3415;51.148;7.014;2022-11-25T14:12:26;11.60;1.00
6756;DHT22;3415;51.148;7.014;2022-11-25T14:15:09;11.50;1.00
6756;DHT22;3415;51.148;7.014;2022-11-25T14:18:19;11.30;1.00
6756;DHT22;3415;51.148;7.014;2022-11-25T14:20:56;11.20;1.00
6756;DHT22;3415;51.148;7.014;2022-11-25T14:23:51;11.10;1.00
6756;DHT22;3415;51.148;7.014;2022-11-25T14:26:27;11.10;1.00
6756;DHT22;3415;51.148;7.014;2022-11-25T14:28:59;11.10;1.00
6756;DHT22;3415;51.148;7.014;2022-11-25T14:31:35;11.00;1.00
6756;DHT22;3415;51.148;7.014;2022-11-25T14:34:11;11.00;1.00
6756;DHT22;3415;51.148;7.014;2022-11-25T14:36:44;11.10;1.00
6756;DHT22;3415;51.148;7.014;2022-11-25T14:39:18;11.00;1.00
6756;DHT22;3415;51.148;7.014;2022-11-25T14:41:54;11.00;1.00
6756;DHT22;3415;51.148;7.014;2022-11-25T14:44:28;11.00;1.00
6756;DHT22;3415;51.148;7.014;2022-11-25T14:47:03;10.90;1.00
6756;DHT22;3415;51.148;7.014;2022-11-25T14:49:46;10.90;1.00
6756;DHT22;3415;51.148;7.014;2022-11-25T14:52:19;10.90;1.00
6756;DHT22;3415;51.148;7.014;2022-11-25T14:54:48;10.90;1.00
6756;DHT22;3415;51.148;7.014;2022-11-25T14:57:19;10.80;1.00
6756;DHT22;3415;51.148;7.014;2022-11-25T14:59:47;10.80;1.00
6756;DHT22;3415;51.148;7.014;2022-11-25T15:02:24;10.70;1.00
6756;DHT22;3415;51.148;7.014;2022-11-25T15:05:00;10.80;1.00
6756;DHT22;3415;51.148;7.014;2022-11-25T15:07:43;10.70;1.00
6756;DHT22;3415;51.148;7.014;2022-11-25T15:10:41;10.70;1.00
6756;DHT22;3415;51.148;7.014;2022-11-25T15:13:23;10.60;1.00
6756;DHT22;3415;51.148;7.014;2022-11-25T15:15:56;10.60;1.00
6756;DHT22;3415;51.148;7.014;2022-11-25T15:18:26;10.50;1.00
6756;DHT22;3415;51.148;7.014;2022-11-25T15:20:57;10.50;1.00
6756;DHT22;3415;51.148;7.014;2022-11-25T15:23:27;10.50;1.00
6756;DHT22;3415;51.148;7.014;2022-11-25T15:25:56;10.50;1.00
6756;DHT22;3415;51.148;7.014;2022-11-25T15:28:23;10.50;1.00
6756;DHT22;3415;51.148;7.014;2022-11-25T15:30:57;10.40;1.00
6756;DHT22;3415;51.148;7.014;2022-11-25T15:33:26;10.40;1.00
6756;DHT22;3415;51.148;7.014;2022-11-25T15:35:56;10.40;1.00
6756;DHT22;3415;51.148;7.014;2022-11-25T15:38:38;10.30;1.00
6756;DHT22;3415;51.148;7.014;2022-11-25T15:41:17;10.30;1.00
6756;DHT22;3415;51.148;7.014;2022-11-25T15:43:47;10.20;1.00
6756;DHT22;3415;51.148;7.014;2022-11-25T15:46:15;10.20;1.00
6756;DHT22;3415;51.148;7.014;2022-11-25T15:48:44;10.20;1.00
6756;DHT22;3415;51.148;7.014;2022-11-25T15:51:23;10.10;1.00
6756;DHT22;3415;51.148;7.014;2022-11-25T15:54:00;10.10;1.00
6756;DHT22;3415;51.148;7.014;2022-11-25T15:56:31;10.10;1.00
6756;DHT22;3415;51.148;7.014;2022-11-25T15:59:00;10.10;1.00
6756;DHT22;3415;51.148;7.014;2022-11-25T16:01:27;10.10;1.00
6756;DHT22;3415;51.148;7.014;2022-11-25T16:04:09;10.10;1.00
6756;DHT22;3415;51.148;7.014;2022-11-25T16:06:51;10.10;1.00
6756;DHT22;3415;51.148;7.014;2022-11-25T16:09:20;10.10;1.00
6756;DHT22;3415;51.148;7.014;2022-11-25T16:11:49;10.00;1.00
6756;DHT22;3415;51.148;7.014;2022-11-25T16:14:18;10.00;1.00
6756;DHT22;3415;51.148;7.014;2022-11-25T16:16:52;10.00;1.00
6756;DHT22;3415;51.148;7.014;2022-11-25T16:19:26;10.00;1.00
6756;DHT22;3415;51.148;7.014;2022-11-25T16:21:59;10.00;1.00
6756;DHT22;3415;51.148;7.014;2022-11-25T16:24:34;10.00;1.00
6756;DHT22;3415;51.148;7.014;2022-11-25T16:27:05;10.10;1.00
6756;DHT22;3415;51.148;7.014;2022-11-25T16:29:47;10.10;1.00
6756;DHT22;3415;51.148;7.014;2022-11-25T16:32:18;10.00;1.00
6756;DHT22;3415;51.148;7.014;2022-11-25T16:34:46;10.00;1.00
6756;DHT22;3415;51.148;7.014;2022-11-25T16:37:14;12.20;1.00
6756;DHT22;3415;51.148;7.014;2022-11-25T16:39:41;10.00;1.00
6756;DHT22;3415;51.148;7.014;2022-11-25T16:42:16;9.90;1.00
6756;DHT22;3415;51.148;7.014;2022-11-25T16:44:46;9.90;1.00
6756;DHT22;3415;51.148;7.014;2022-11-25T16:47:14;10.00;1.00
6756;DHT22;3415;51.148;7.014;2022-11-25T16:49:41;9.90;1.00
6756;DHT22;3415;51.148;7.014;2022-11-25T16:52:09;10.00;1.00
6756;DHT22;3415;51.148;7.014;2022-11-25T16:54:37;9.90;1.00
6756;DHT22;3415;51.148;7.014;2022-11-25T16:57:05;10.00;1.00
6756;DHT22;3415;51.148;7.014;2022-11-25T16:59:38;10.00;1.00
6756;DHT22;3415;51.148;7.014;2022-11-25T17:02:13;10.00;1.00
6756;DHT22;3415;51.148;7.014;2022-11-25T17:04:42;9.90;1.00
6756;DHT22;3415;51.148;7.014;2022-11-25T17:07:11;9.90;1.00
6756;DHT22;3415;51.148;7.014;2022-11-25T17:09:40;9.90;1.00